Mataranka, Australia
Current Conditions -  °F | °C
As of 8:30 PM on Wednesday 26 Nov 2014 (Local Time) from YPTN Reporting Station
Clear Clear  
Wind Chill: 86°   Ceiling: Unl
Heat Index: 89°   Visibility: 6mi
Dew Point: 68°   Wind: 0mph
Humidity: 55%   Direction: NA
Pressure: 29.74"   Gusts: NA
Location:  14.93°S, 133.07°E
Report Text: YPTN 261130Z AUTO 00000KT 9999 // NCD 30/20 Q1007
Loading
Personal Weather Stations






























Interactive Weather Map New forecast layout! Learn more

10-Day Weather Forecast

Advertisements
Track Severe Weather on mobile